Back to Top

Language: 

My Weather Underground Personal Weather Station Historical Data with Graphs...

Delerius Weather Station Historical Data
Daily Summary for March 27, 2017 Units:  Both    English   Metric
« Previous Day
Next Day »
Daily Weekly Monthly Yearly Custom
  High: Low: Average:
Temperature: 53.8 °F /  12.1 °C 42.8 °F /  6 °C 46.1 °F /  7.8 °C
Dew Point: 45.0 °F /  7.2 °C 39.1 °F /  3.9 °C 41.3 °F /  5.2 °C
Humidity: 89 % 69 % 84 %
Wind Speed: 7.0 mph /  11.3 km/h - 3 mph /  4.8 km/h
Wind Gust: 14.0 mph /  22.5 km/h - -
Wind:- - East
Pressure: 30.32 in /  1026.6 hPa 30.14 in /  1020.5 hPa -
Precipitation: 0.00 in /  0 mm    
Historical Graphs
 
 
Tabular Data for March 27, 2017
Time Temperature Dew Point Pressure Wind Wind Speed Wind Gust Humidity Rainfall Rate (Hourly) solar Conditions
00:01 44.1 °F /  6.7 °C 40.4 °F /  4.7 °C 30.32 in /  1026.6 hPa ESE 6.0 mph /  9.7 km/h 12.0 mph /  19.3 km/h 87 % 0.00 in /  0 mm 0 W/m2
00:06 44.2 °F /  6.8 °C 40.6 °F /  4.8 °C 30.32 in /  1026.6 hPa ESE 6.0 mph /  9.7 km/h 12.0 mph /  19.3 km/h 87 % 0.00 in /  0 mm 0 W/m2
00:11 44.2 °F /  6.8 °C 40.6 °F /  4.8 °C 30.32 in /  1026.6 hPa ESE 6.0 mph /  9.7 km/h 11.0 mph /  17.7 km/h 87 % 0.00 in /  0 mm 0 W/m2
00:16 44.2 °F /  6.8 °C 40.6 °F /  4.8 °C 30.32 in /  1026.6 hPa ESE 5.0 mph /  8 km/h 10.0 mph /  16.1 km/h 87 % 0.00 in /  0 mm 0 W/m2
00:21 44.2 °F /  6.8 °C 40.6 °F /  4.8 °C 30.32 in /  1026.6 hPa ESE 6.0 mph /  9.7 km/h 12.0 mph /  19.3 km/h 87 % 0.00 in /  0 mm 0 W/m2
00:26 44.2 °F /  6.8 °C 40.6 °F /  4.8 °C 30.32 in /  1026.6 hPa ESE 7.0 mph /  11.3 km/h 12.0 mph /  19.3 km/h 87 % 0.00 in /  0 mm 0 W/m2
00:31 44.2 °F /  6.8 °C 40.6 °F /  4.8 °C 30.32 in /  1026.6 hPa ESE 5.0 mph /  8 km/h 11.0 mph /  17.7 km/h 87 % 0.00 in /  0 mm 0 W/m2
00:36 44.2 °F /  6.8 °C 40.6 °F /  4.8 °C 30.32 in /  1026.6 hPa ESE 5.0 mph /  8 km/h 9.0 mph /  14.5 km/h 87 % 0.00 in /  0 mm 0 W/m2
00:41 44.2 °F /  6.8 °C 40.6 °F /  4.8 °C 30.32 in /  1026.6 hPa SE 5.0 mph /  8 km/h 9.0 mph /  14.5 km/h 87 % 0.00 in /  0 mm 0 W/m2
00:46 44.2 °F /  6.8 °C 40.6 °F /  4.8 °C 30.32 in /  1026.6 hPa ESE 6.0 mph /  9.7 km/h 10.0 mph /  16.1 km/h 87 % 0.00 in /  0 mm 0 W/m2
00:51 44.2 °F /  6.8 °C 40.6 °F /  4.8 °C 30.32 in /  1026.6 hPa ESE 7.0 mph /  11.3 km/h 10.0 mph /  16.1 km/h 87 % 0.00 in /  0 mm 0 W/m2
00:56 44.2 °F /  6.8 °C 40.6 °F /  4.8 °C 30.32 in /  1026.6 hPa ESE 6.0 mph /  9.7 km/h 11.0 mph /  17.7 km/h 87 % 0.00 in /  0 mm 0 W/m2
01:01 44.2 °F /  6.8 °C 40.6 °F /  4.8 °C 30.32 in /  1026.6 hPa ESE 6.0 mph /  9.7 km/h 11.0 mph /  17.7 km/h 87 % 0.00 in /  0 mm 0 W/m2
01:06 44.2 °F /  6.8 °C 40.6 °F /  4.8 °C 30.32 in /  1026.6 hPa ESE 5.0 mph /  8 km/h 10.0 mph /  16.1 km/h 87 % 0.00 in /  0 mm 0 W/m2
01:11 44.2 °F /  6.8 °C 40.6 °F /  4.8 °C 30.32 in /  1026.6 hPa ESE 4.0 mph /  6.4 km/h 8.0 mph /  12.9 km/h 87 % 0.00 in /  0 mm 0 W/m2
01:16 44.4 °F /  6.9 °C 40.8 °F /  4.9 °C 30.32 in /  1026.6 hPa ESE 3.0 mph /  4.8 km/h 8.0 mph /  12.9 km/h 87 % 0.00 in /  0 mm 0 W/m2
01:21 44.4 °F /  6.9 °C 40.8 °F /  4.9 °C 30.32 in /  1026.6 hPa SE 3.0 mph /  4.8 km/h 8.0 mph /  12.9 km/h 87 % 0.00 in /  0 mm 0 W/m2
01:26 44.2 °F /  6.8 °C 40.6 °F /  4.8 °C 30.32 in /  1026.6 hPa ESE 4.0 mph /  6.4 km/h 6.0 mph /  9.7 km/h 87 % 0.00 in /  0 mm 0 W/m2
01:31 44.2 °F /  6.8 °C 40.6 °F /  4.8 °C 30.32 in /  1026.6 hPa ESE 3.0 mph /  4.8 km/h 5.0 mph /  8 km/h 87 % 0.00 in /  0 mm 0 W/m2
01:36 44.2 °F /  6.8 °C 40.6 °F /  4.8 °C 30.31 in /  1026.3 hPa ESE 2.0 mph /  3.2 km/h 5.0 mph /  8 km/h 87 % 0.00 in /  0 mm 0 W/m2
01:41 44.2 °F /  6.8 °C 40.6 °F /  4.8 °C 30.31 in /  1026.3 hPa ESE 2.0 mph /  3.2 km/h 5.0 mph /  8 km/h 87 % 0.00 in /  0 mm 0 W/m2
01:46 44.2 °F /  6.8 °C 40.9 °F /  4.9 °C 30.31 in /  1026.3 hPa ESE 2.0 mph /  3.2 km/h 5.0 mph /  8 km/h 88 % 0.00 in /  0 mm 0 W/m2
01:51 44.2 °F /  6.8 °C 40.6 °F /  4.8 °C 30.31 in /  1026.3 hPa ESE 3.0 mph /  4.8 km/h 7.0 mph /  11.3 km/h 87 % 0.00 in /  0 mm 0 W/m2
01:56 44.2 °F /  6.8 °C 40.6 °F /  4.8 °C 30.31 in /  1026.3 hPa ESE 3.0 mph /  4.8 km/h 7.0 mph /  11.3 km/h 87 % 0.00 in /  0 mm 0 W/m2
02:02 44.2 °F /  6.8 °C 40.9 °F /  4.9 °C 30.31 in /  1026.3 hPa ESE 2.0 mph /  3.2 km/h 7.0 mph /  11.3 km/h 88 % 0.00 in /  0 mm 0 W/m2
02:06 44.2 °F /  6.8 °C 40.6 °F /  4.8 °C 30.31 in /  1026.3 hPa East 1.0 mph /  1.6 km/h 4.0 mph /  6.4 km/h 87 % 0.00 in /  0 mm 0 W/m2
02:12 44.1 °F /  6.7 °C 40.4 °F /  4.7 °C 30.30 in /  1026 hPa East 1.0 mph /  1.6 km/h 5.0 mph /  8 km/h 87 % 0.00 in /  0 mm 0 W/m2
02:17 44.1 °F /  6.7 °C 40.7 °F /  4.8 °C 30.30 in /  1026 hPa East 2.0 mph /  3.2 km/h 5.0 mph /  8 km/h 88 % 0.00 in /  0 mm 0 W/m2
02:22 43.9 °F /  6.6 °C 40.6 °F /  4.8 °C 30.30 in /  1026 hPa East 2.0 mph /  3.2 km/h 7.0 mph /  11.3 km/h 88 % 0.00 in /  0 mm 0 W/m2
02:27 43.9 °F /  6.6 °C 40.6 °F /  4.8 °C 30.30 in /  1026 hPa East 2.0 mph /  3.2 km/h 7.0 mph /  11.3 km/h 88 % 0.00 in /  0 mm 0 W/m2
02:32 43.7 °F /  6.5 °C 40.4 °F /  4.7 °C 30.30 in /  1026 hPa East 2.0 mph /  3.2 km/h 6.0 mph /  9.7 km/h 88 % 0.00 in /  0 mm 0 W/m2
02:37 43.5 °F /  6.4 °C 40.2 °F /  4.6 °C 30.29 in /  1025.6 hPa ENE 2.0 mph /  3.2 km/h 6.0 mph /  9.7 km/h 88 % 0.00 in /  0 mm 0 W/m2
02:42 43.5 °F /  6.4 °C 40.2 °F /  4.6 °C 30.29 in /  1025.6 hPa ENE 2.0 mph /  3.2 km/h 7.0 mph /  11.3 km/h 88 % 0.00 in /  0 mm 0 W/m2
02:47 43.5 °F /  6.4 °C 40.2 °F /  4.6 °C 30.29 in /  1025.6 hPa ENE 2.0 mph /  3.2 km/h 7.0 mph /  11.3 km/h 88 % 0.00 in /  0 mm 0 W/m2
02:52 43.5 °F /  6.4 °C 40.2 °F /  4.6 °C 30.29 in /  1025.6 hPa ENE 2.0 mph /  3.2 km/h 6.0 mph /  9.7 km/h 88 % 0.00 in /  0 mm 0 W/m2
02:57 43.5 °F /  6.4 °C 40.2 °F /  4.6 °C 30.29 in /  1025.6 hPa East 1.0 mph /  1.6 km/h 5.0 mph /  8 km/h 88 % 0.00 in /  0 mm 0 W/m2
03:02 43.3 °F /  6.3 °C 40.0 °F /  4.4 °C 30.29 in /  1025.6 hPa East 2.0 mph /  3.2 km/h 6.0 mph /  9.7 km/h 88 % 0.00 in /  0 mm 0 W/m2
03:07 43.3 °F /  6.3 °C 40.3 °F /  4.6 °C 30.29 in /  1025.6 hPa ENE 2.0 mph /  3.2 km/h 6.0 mph /  9.7 km/h 89 % 0.00 in /  0 mm 0 W/m2
03:12 43.3 °F /  6.3 °C 40.3 °F /  4.6 °C 30.29 in /  1025.6 hPa ENE 2.0 mph /  3.2 km/h 6.0 mph /  9.7 km/h 89 % 0.00 in /  0 mm 0 W/m2
03:17 43.3 °F /  6.3 °C 40.0 °F /  4.4 °C 30.29 in /  1025.6 hPa ENE 3.0 mph /  4.8 km/h 7.0 mph /  11.3 km/h 88 % 0.00 in /  0 mm 0 W/m2
03:22 43.3 °F /  6.3 °C 40.0 °F /  4.4 °C 30.28 in /  1025.3 hPa ENE 3.0 mph /  4.8 km/h 7.0 mph /  11.3 km/h 88 % 0.00 in /  0 mm 0 W/m2
03:27 43.3 °F /  6.3 °C 40.0 °F /  4.4 °C 30.29 in /  1025.6 hPa ENE 2.0 mph /  3.2 km/h 7.0 mph /  11.3 km/h 88 % 0.00 in /  0 mm 0 W/m2
03:32 43.3 °F /  6.3 °C 40.0 °F /  4.4 °C 30.29 in /  1025.6 hPa East 1.0 mph /  1.6 km/h 5.0 mph /  8 km/h 88 % 0.00 in /  0 mm 0 W/m2
03:37 43.3 °F /  6.3 °C 40.0 °F /  4.4 °C 30.28 in /  1025.3 hPa East 2.0 mph /  3.2 km/h 8.0 mph /  12.9 km/h 88 % 0.00 in /  0 mm 0 W/m2
03:42 43.3 °F /  6.3 °C 40.0 °F /  4.4 °C 30.28 in /  1025.3 hPa East 3.0 mph /  4.8 km/h 9.0 mph /  14.5 km/h 88 % 0.00 in /  0 mm 0 W/m2
03:47 43.3 °F /  6.3 °C 40.0 °F /  4.4 °C 30.28 in /  1025.3 hPa ENE 2.0 mph /  3.2 km/h 9.0 mph /  14.5 km/h 88 % 0.00 in /  0 mm 0 W/m2
03:52 43.3 °F /  6.3 °C 40.0 °F /  4.4 °C 30.28 in /  1025.3 hPa East 1.0 mph /  1.6 km/h 4.0 mph /  6.4 km/h 88 % 0.00 in /  0 mm 0 W/m2
03:57 43.3 °F /  6.3 °C 40.0 °F /  4.4 °C 30.28 in /  1025.3 hPa Calm   5.0 mph /  8 km/h 88 % 0.00 in /  0 mm 0 W/m2
04:02 43.3 °F /  6.3 °C 40.0 °F /  4.4 °C 30.28 in /  1025.3 hPa ENE 2.0 mph /  3.2 km/h 5.0 mph /  8 km/h 88 % 0.00 in /  0 mm 0 W/m2
04:07 43.2 °F /  6.2 °C 39.8 °F /  4.3 °C 30.27 in /  1024.9 hPa ENE 3.0 mph /  4.8 km/h 6.0 mph /  9.7 km/h 88 % 0.00 in /  0 mm 0 W/m2
04:12 43.2 °F /  6.2 °C 39.8 °F /  4.3 °C 30.28 in /  1025.3 hPa ENE 3.0 mph /  4.8 km/h 6.0 mph /  9.7 km/h 88 % 0.00 in /  0 mm 0 W/m2
04:17 43.2 °F /  6.2 °C 39.6 °F /  4.2 °C 30.28 in /  1025.3 hPa East 2.0 mph /  3.2 km/h 6.0 mph /  9.7 km/h 87 % 0.00 in /  0 mm 0 W/m2
04:22 43.2 °F /  6.2 °C 39.6 °F /  4.2 °C 30.27 in /  1024.9 hPa ESE 1.0 mph /  1.6 km/h 5.0 mph /  8 km/h 87 % 0.00 in /  0 mm 0 W/m2
04:27 43.2 °F /  6.2 °C 39.6 °F /  4.2 °C 30.28 in /  1025.3 hPa East 1.0 mph /  1.6 km/h 5.0 mph /  8 km/h 87 % 0.00 in /  0 mm 0 W/m2
04:32 43.2 °F /  6.2 °C 39.6 °F /  4.2 °C 30.28 in /  1025.3 hPa ENE 1.0 mph /  1.6 km/h 6.0 mph /  9.7 km/h 87 % 0.00 in /  0 mm 0 W/m2
04:37 43.2 °F /  6.2 °C 39.6 °F /  4.2 °C 30.27 in /  1024.9 hPa ENE 2.0 mph /  3.2 km/h 7.0 mph /  11.3 km/h 87 % 0.00 in /  0 mm 0 W/m2
04:42 43.2 °F /  6.2 °C 39.6 °F /  4.2 °C 30.27 in /  1024.9 hPa ENE 1.0 mph /  1.6 km/h 7.0 mph /  11.3 km/h 87 % 0.00 in /  0 mm 0 W/m2
04:48 43.2 °F /  6.2 °C 39.6 °F /  4.2 °C 30.27 in /  1024.9 hPa ENE 1.0 mph /  1.6 km/h 5.0 mph /  8 km/h 87 % 0.00 in /  0 mm 0 W/m2
04:53 43.2 °F /  6.2 °C 39.6 °F /  4.2 °C 30.27 in /  1024.9 hPa ENE 1.0 mph /  1.6 km/h 6.0 mph /  9.7 km/h 87 % 0.00 in /  0 mm 0 W/m2
04:58 43.2 °F /  6.2 °C 39.6 °F /  4.2 °C 30.27 in /  1024.9 hPa ENE 1.0 mph /  1.6 km/h 6.0 mph /  9.7 km/h 87 % 0.00 in /  0 mm 0 W/m2
05:03 43.0 °F /  6.1 °C 39.4 °F /  4.1 °C 30.27 in /  1024.9 hPa East 1.0 mph /  1.6 km/h 5.0 mph /  8 km/h 87 % 0.00 in /  0 mm 0 W/m2
05:08 43.0 °F /  6.1 °C 39.4 °F /  4.1 °C 30.27 in /  1024.9 hPa East 1.0 mph /  1.6 km/h 5.0 mph /  8 km/h 87 % 0.00 in /  0 mm 0 W/m2
05:13 43.0 °F /  6.1 °C 39.4 °F /  4.1 °C 30.27 in /  1024.9 hPa East 1.0 mph /  1.6 km/h 5.0 mph /  8 km/h 87 % 0.00 in /  0 mm 0 W/m2
05:18 43.0 °F /  6.1 °C 39.4 °F /  4.1 °C 30.26 in /  1024.6 hPa East 1.0 mph /  1.6 km/h 6.0 mph /  9.7 km/h 87 % 0.00 in /  0 mm 0 W/m2
05:23 43.0 °F /  6.1 °C 39.4 °F /  4.1 °C 30.27 in /  1024.9 hPa East 2.0 mph /  3.2 km/h 6.0 mph /  9.7 km/h 87 % 0.00 in /  0 mm 0 W/m2
05:28 43.0 °F /  6.1 °C 39.4 °F /  4.1 °C 30.27 in /  1024.9 hPa East 1.0 mph /  1.6 km/h 5.0 mph /  8 km/h 87 % 0.00 in /  0 mm 0 W/m2
05:33 43.0 °F /  6.1 °C 39.4 °F /  4.1 °C 30.26 in /  1024.6 hPa ENE 1.0 mph /  1.6 km/h 5.0 mph /  8 km/h 87 % 0.00 in /  0 mm 0 W/m2
05:38 43.0 °F /  6.1 °C 39.4 °F /  4.1 °C 30.26 in /  1024.6 hPa ENE 3.0 mph /  4.8 km/h 7.0 mph /  11.3 km/h 87 % 0.00 in /  0 mm 0 W/m2
05:43 43.0 °F /  6.1 °C 39.4 °F /  4.1 °C 30.26 in /  1024.6 hPa ENE 4.0 mph /  6.4 km/h 7.0 mph /  11.3 km/h 87 % 0.00 in /  0 mm 0 W/m2
05:48 42.8 °F /  6 °C 39.2 °F /  4 °C 30.27 in /  1024.9 hPa ENE 3.0 mph /  4.8 km/h 7.0 mph /  11.3 km/h 87 % 0.00 in /  0 mm 0 W/m2
05:53 42.8 °F /  6 °C 39.2 °F /  4 °C 30.27 in /  1024.9 hPa ENE 2.0 mph /  3.2 km/h 5.0 mph /  8 km/h 87 % 0.00 in /  0 mm 0 W/m2
05:58 42.8 °F /  6 °C 39.2 °F /  4 °C 30.27 in /  1024.9 hPa ENE 1.0 mph /  1.6 km/h 5.0 mph /  8 km/h 87 % 0.00 in /  0 mm 0 W/m2
06:03 43.0 °F /  6.1 °C 39.4 °F /  4.1 °C 30.27 in /  1024.9 hPa ENE 1.0 mph /  1.6 km/h 6.0 mph /  9.7 km/h 87 % 0.00 in /  0 mm 0 W/m2
06:08 43.0 °F /  6.1 °C 39.4 °F /  4.1 °C 30.27 in /  1024.9 hPa ENE 2.0 mph /  3.2 km/h 6.0 mph /  9.7 km/h 87 % 0.00 in /  0 mm 0 W/m2
06:13 43.0 °F /  6.1 °C 39.4 °F /  4.1 °C 30.27 in /  1024.9 hPa ENE 1.0 mph /  1.6 km/h 5.0 mph /  8 km/h 87 % 0.00 in /  0 mm 0 W/m2
06:18 43.0 °F /  6.1 °C 39.4 °F /  4.1 °C 30.27 in /  1024.9 hPa Calm   1.0 mph /  1.6 km/h 87 % 0.00 in /  0 mm 0 W/m2
06:23 43.0 °F /  6.1 °C 39.4 °F /  4.1 °C 30.27 in /  1024.9 hPa Calm   2.0 mph /  3.2 km/h 87 % 0.00 in /  0 mm 0 W/m2
06:28 43.0 °F /  6.1 °C 39.4 °F /  4.1 °C 30.28 in /  1025.3 hPa Calm   5.0 mph /  8 km/h 87 % 0.00 in /  0 mm 0 W/m2
06:33 43.0 °F /  6.1 °C 39.4 °F /  4.1 °C 30.27 in /  1024.9 hPa Calm   5.0 mph /  8 km/h 87 % 0.00 in /  0 mm 0 W/m2
06:38 43.0 °F /  6.1 °C 39.4 °F /  4.1 °C 30.27 in /  1024.9 hPa Calm   3.0 mph /  4.8 km/h 87 % 0.00 in /  0 mm 0 W/m2
06:43 43.0 °F /  6.1 °C 39.4 °F /  4.1 °C 30.27 in /  1024.9 hPa Calm   4.0 mph /  6.4 km/h 87 % 0.00 in /  0 mm 0 W/m2
06:48 43.0 °F /  6.1 °C 39.4 °F /  4.1 °C 30.27 in /  1024.9 hPa Calm   4.0 mph /  6.4 km/h 87 % 0.00 in /  0 mm 0 W/m2
06:53 43.0 °F /  6.1 °C 39.7 °F /  4.3 °C 30.27 in /  1024.9 hPa ENE 1.0 mph /  1.6 km/h 6.0 mph /  9.7 km/h 88 % 0.00 in /  0 mm 0 W/m2
06:58 43.0 °F /  6.1 °C 39.4 °F /  4.1 °C 30.27 in /  1024.9 hPa ENE 2.0 mph /  3.2 km/h 6.0 mph /  9.7 km/h 87 % 0.00 in /  0 mm 0 W/m2
07:03 43.0 °F /  6.1 °C 39.4 °F /  4.1 °C 30.27 in /  1024.9 hPa ENE 2.0 mph /  3.2 km/h 6.0 mph /  9.7 km/h 87 % 0.00 in /  0 mm 5 W/m2
07:08 43.0 °F /  6.1 °C 39.4 °F /  4.1 °C 30.27 in /  1024.9 hPa ENE 3.0 mph /  4.8 km/h 6.0 mph /  9.7 km/h 87 % 0.00 in /  0 mm 5 W/m2
07:13 43.0 °F /  6.1 °C 39.4 °F /  4.1 °C 30.27 in /  1024.9 hPa NE 3.0 mph /  4.8 km/h 6.0 mph /  9.7 km/h 87 % 0.00 in /  0 mm 9 W/m2
07:18 43.0 °F /  6.1 °C 39.7 °F /  4.3 °C 30.27 in /  1024.9 hPa NE 2.0 mph /  3.2 km/h 6.0 mph /  9.7 km/h 88 % 0.00 in /  0 mm 9 W/m2
07:20 43.0 °F /  6.1 °C 39.7 °F /  4.3 °C 30.27 in /  1024.9 hPa NE 2.0 mph /  3.2 km/h 5.0 mph /  8 km/h 88 % 0.00 in /  0 mm 11 W/m2
07:25 43.0 °F /  6.1 °C 39.7 °F /  4.3 °C 30.27 in /  1024.9 hPa NE 1.0 mph /  1.6 km/h 6.0 mph /  9.7 km/h 88 % 0.00 in /  0 mm 12 W/m2
07:30 43.0 °F /  6.1 °C 39.7 °F /  4.3 °C 30.27 in /  1024.9 hPa NE 1.0 mph /  1.6 km/h 6.0 mph /  9.7 km/h 88 % 0.00 in /  0 mm 14 W/m2
07:35 43.0 °F /  6.1 °C 39.7 °F /  4.3 °C 30.26 in /  1024.6 hPa NE 1.0 mph /  1.6 km/h 6.0 mph /  9.7 km/h 88 % 0.00 in /  0 mm 16 W/m2
07:40 43.0 °F /  6.1 °C 39.4 °F /  4.1 °C 30.27 in /  1024.9 hPa ENE 1.0 mph /  1.6 km/h 6.0 mph /  9.7 km/h 87 % 0.00 in /  0 mm 23 W/m2
07:45 43.0 °F /  6.1 °C 39.4 °F /  4.1 °C 30.27 in /  1024.9 hPa ENE 1.0 mph /  1.6 km/h 5.0 mph /  8 km/h 87 % 0.00 in /  0 mm 23 W/m2
07:50 43.0 °F /  6.1 °C 39.4 °F /  4.1 °C 30.27 in /  1024.9 hPa ENE 1.0 mph /  1.6 km/h 4.0 mph /  6.4 km/h 87 % 0.00 in /  0 mm 25 W/m2
07:55 43.0 °F /  6.1 °C 39.4 °F /  4.1 °C 30.27 in /  1024.9 hPa ENE 1.0 mph /  1.6 km/h 4.0 mph /  6.4 km/h 87 % 0.00 in /  0 mm 26 W/m2
08:00 43.0 °F /  6.1 °C 39.4 °F /  4.1 °C 30.27 in /  1024.9 hPa ENE 1.0 mph /  1.6 km/h 4.0 mph /  6.4 km/h 87 % 0.00 in /  0 mm 32 W/m2
08:05 43.0 °F /  6.1 °C 39.4 °F /  4.1 °C 30.27 in /  1024.9 hPa NE 2.0 mph /  3.2 km/h 7.0 mph /  11.3 km/h 87 % 0.00 in /  0 mm 44 W/m2
08:10 43.0 °F /  6.1 °C 39.4 °F /  4.1 °C 30.27 in /  1024.9 hPa NE 3.0 mph /  4.8 km/h 7.0 mph /  11.3 km/h 87 % 0.00 in /  0 mm 46 W/m2
08:15 43.0 °F /  6.1 °C 39.4 °F /  4.1 °C 30.27 in /  1024.9 hPa ENE 2.0 mph /  3.2 km/h 7.0 mph /  11.3 km/h 87 % 0.00 in /  0 mm 49 W/m2
08:20 43.0 °F /  6.1 °C 39.1 °F /  3.9 °C 30.27 in /  1024.9 hPa ENE 2.0 mph /  3.2 km/h 7.0 mph /  11.3 km/h 86 % 0.00 in /  0 mm 46 W/m2
08:25 43.2 °F /  6.2 °C 39.3 °F /  4.1 °C 30.27 in /  1024.9 hPa ENE 2.0 mph /  3.2 km/h 6.0 mph /  9.7 km/h 86 % 0.00 in /  0 mm 42 W/m2
08:30 43.2 °F /  6.2 °C 39.6 °F /  4.2 °C 30.27 in /  1024.9 hPa ENE 2.0 mph /  3.2 km/h 6.0 mph /  9.7 km/h 87 % 0.00 in /  0 mm 42 W/m2
08:35 43.2 °F /  6.2 °C 39.3 °F /  4.1 °C 30.27 in /  1024.9 hPa ENE 2.0 mph /  3.2 km/h 6.0 mph /  9.7 km/h 86 % 0.00 in /  0 mm 44 W/m2
08:40 43.2 °F /  6.2 °C 39.3 °F /  4.1 °C 30.27 in /  1024.9 hPa ENE 2.0 mph /  3.2 km/h 6.0 mph /  9.7 km/h 86 % 0.00 in /  0 mm 53 W/m2
08:45 43.2 °F /  6.2 °C 39.3 °F /  4.1 °C 30.27 in /  1024.9 hPa ENE 2.0 mph /  3.2 km/h 6.0 mph /  9.7 km/h 86 % 0.00 in /  0 mm 62 W/m2
08:50 43.2 °F /  6.2 °C 39.3 °F /  4.1 °C 30.27 in /  1024.9 hPa ENE 2.0 mph /  3.2 km/h 6.0 mph /  9.7 km/h 86 % 0.00 in /  0 mm 53 W/m2
08:55 43.3 °F /  6.3 °C 39.4 °F /  4.1 °C 30.27 in /  1024.9 hPa ENE 2.0 mph /  3.2 km/h 5.0 mph /  8 km/h 86 % 0.00 in /  0 mm 63 W/m2
09:00 43.3 °F /  6.3 °C 39.4 °F /  4.1 °C 30.27 in /  1024.9 hPa ENE 1.0 mph /  1.6 km/h 6.0 mph /  9.7 km/h 86 % 0.00 in /  0 mm 60 W/m2
09:05 43.5 °F /  6.4 °C 39.6 °F /  4.2 °C 30.27 in /  1024.9 hPa East 2.0 mph /  3.2 km/h 6.0 mph /  9.7 km/h 86 % 0.00 in /  0 mm 56 W/m2
09:11 43.5 °F /  6.4 °C 39.6 °F /  4.2 °C 30.27 in /  1024.9 hPa ENE 2.0 mph /  3.2 km/h 7.0 mph /  11.3 km/h 86 % 0.00 in /  0 mm 60 W/m2
09:16 43.5 °F /  6.4 °C 39.6 °F /  4.2 °C 30.27 in /  1024.9 hPa ENE 2.0 mph /  3.2 km/h 9.0 mph /  14.5 km/h 86 % 0.00 in /  0 mm 67 W/m2
09:21 43.5 °F /  6.4 °C 39.3 °F /  4.1 °C 30.27 in /  1024.9 hPa East 3.0 mph /  4.8 km/h 9.0 mph /  14.5 km/h 85 % 0.00 in /  0 mm 67 W/m2
09:26 43.7 °F /  6.5 °C 39.5 °F /  4.2 °C 30.27 in /  1024.9 hPa East 2.0 mph /  3.2 km/h 8.0 mph /  12.9 km/h 85 % 0.00 in /  0 mm 70 W/m2
09:31 43.9 °F /  6.6 °C 39.7 °F /  4.3 °C 30.27 in /  1024.9 hPa ESE 2.0 mph /  3.2 km/h 6.0 mph /  9.7 km/h 85 % 0.00 in /  0 mm 77 W/m2
09:36 43.9 °F /  6.6 °C 39.7 °F /  4.3 °C 30.27 in /  1024.9 hPa ESE 2.0 mph /  3.2 km/h 6.0 mph /  9.7 km/h 85 % 0.00 in /  0 mm 86 W/m2
09:41 43.9 °F /  6.6 °C 39.7 °F /  4.3 °C 30.27 in /  1024.9 hPa East 2.0 mph /  3.2 km/h 6.0 mph /  9.7 km/h 85 % 0.00 in /  0 mm 88 W/m2
09:46 43.9 °F /  6.6 °C 39.7 °F /  4.3 °C 30.27 in /  1024.9 hPa East 2.0 mph /  3.2 km/h 6.0 mph /  9.7 km/h 85 % 0.00 in /  0 mm 102 W/m2
09:51 44.1 °F /  6.7 °C 39.8 °F /  4.3 °C 30.27 in /  1024.9 hPa East 1.0 mph /  1.6 km/h 5.0 mph /  8 km/h 85 % 0.00 in /  0 mm 102 W/m2
09:56 44.1 °F /  6.7 °C 39.8 °F /  4.3 °C 30.27 in /  1024.9 hPa ESE 1.0 mph /  1.6 km/h 6.0 mph /  9.7 km/h 85 % 0.00 in /  0 mm 120 W/m2
10:01 44.2 °F /  6.8 °C 39.7 °F /  4.3 °C 30.27 in /  1024.9 hPa East 2.0 mph /  3.2 km/h 9.0 mph /  14.5 km/h 84 % 0.00 in /  0 mm 155 W/m2
10:06 44.4 °F /  6.9 °C 39.6 °F /  4.2 °C 30.27 in /  1024.9 hPa East 3.0 mph /  4.8 km/h 9.0 mph /  14.5 km/h 83 % 0.00 in /  0 mm 163 W/m2
10:11 44.4 °F /  6.9 °C 39.6 °F /  4.2 °C 30.27 in /  1024.9 hPa East 3.0 mph /  4.8 km/h 8.0 mph /  12.9 km/h 83 % 0.00 in /  0 mm 127 W/m2
10:16 44.4 °F /  6.9 °C 39.9 °F /  4.4 °C 30.27 in /  1024.9 hPa ENE 4.0 mph /  6.4 km/h 9.0 mph /  14.5 km/h 84 % 0.00 in /  0 mm 120 W/m2
10:21 44.4 °F /  6.9 °C 39.9 °F /  4.4 °C 30.27 in /  1024.9 hPa NE 4.0 mph /  6.4 km/h 9.0 mph /  14.5 km/h 84 % 0.00 in /  0 mm 128 W/m2
10:26 44.4 °F /  6.9 °C 39.9 °F /  4.4 °C 30.27 in /  1024.9 hPa ENE 3.0 mph /  4.8 km/h 8.0 mph /  12.9 km/h 84 % 0.00 in /  0 mm 141 W/m2
10:31 44.6 °F /  7 °C 40.1 °F /  4.5 °C 30.26 in /  1024.6 hPa East 3.0 mph /  4.8 km/h 8.0 mph /  12.9 km/h 84 % 0.00 in /  0 mm 146 W/m2
10:36 44.8 °F /  7.1 °C 40.2 °F /  4.6 °C 30.27 in /  1024.9 hPa ESE 3.0 mph /  4.8 km/h 7.0 mph /  11.3 km/h 84 % 0.00 in /  0 mm 137 W/m2
10:41 44.8 °F /  7.1 °C 39.9 °F /  4.4 °C 30.27 in /  1024.9 hPa ESE 3.0 mph /  4.8 km/h 8.0 mph /  12.9 km/h 83 % 0.00 in /  0 mm 137 W/m2
10:46 44.8 °F /  7.1 °C 39.9 °F /  4.4 °C 30.27 in /  1024.9 hPa East 3.0 mph /  4.8 km/h 8.0 mph /  12.9 km/h 83 % 0.00 in /  0 mm 135 W/m2
10:51 44.8 °F /  7.1 °C 39.9 °F /  4.4 °C 30.27 in /  1024.9 hPa ENE 3.0 mph /  4.8 km/h 7.0 mph /  11.3 km/h 83 % 0.00 in /  0 mm 142 W/m2
10:56 44.8 °F /  7.1 °C 39.9 °F /  4.4 °C 30.26 in /  1024.6 hPa ENE 3.0 mph /  4.8 km/h 7.0 mph /  11.3 km/h 83 % 0.00 in /  0 mm 149 W/m2
11:01 44.8 °F /  7.1 °C 39.9 °F /  4.4 °C 30.26 in /  1024.6 hPa ENE 4.0 mph /  6.4 km/h 8.0 mph /  12.9 km/h 83 % 0.00 in /  0 mm 148 W/m2
11:06 45.0 °F /  7.2 °C 40.4 °F /  4.7 °C 30.26 in /  1024.6 hPa ENE 4.0 mph /  6.4 km/h 8.0 mph /  12.9 km/h 84 % 0.00 in /  0 mm 146 W/m2
11:11 45.0 °F /  7.2 °C 40.4 °F /  4.7 °C 30.26 in /  1024.6 hPa ENE 3.0 mph /  4.8 km/h 8.0 mph /  12.9 km/h 84 % 0.00 in /  0 mm 146 W/m2
11:16 45.1 °F /  7.3 °C 40.3 °F /  4.6 °C 30.26 in /  1024.6 hPa East 2.0 mph /  3.2 km/h 8.0 mph /  12.9 km/h 83 % 0.00 in /  0 mm 156 W/m2
11:21 45.3 °F /  7.4 °C 40.5 °F /  4.7 °C 30.26 in /  1024.6 hPa ENE 2.0 mph /  3.2 km/h 8.0 mph /  12.9 km/h 83 % 0.00 in /  0 mm 153 W/m2
11:26 45.3 °F /  7.4 °C 40.5 °F /  4.7 °C 30.26 in /  1024.6 hPa East 3.0 mph /  4.8 km/h 8.0 mph /  12.9 km/h 83 % 0.00 in /  0 mm 163 W/m2
11:31 45.3 °F /  7.4 °C 40.5 °F /  4.7 °C 30.26 in /  1024.6 hPa East 3.0 mph /  4.8 km/h 8.0 mph /  12.9 km/h 83 % 0.00 in /  0 mm 176 W/m2
11:36 45.5 °F /  7.5 °C 40.6 °F /  4.8 °C 30.26 in /  1024.6 hPa East 3.0 mph /  4.8 km/h 7.0 mph /  11.3 km/h 83 % 0.00 in /  0 mm 176 W/m2
11:41 45.7 °F /  7.6 °C 40.5 °F /  4.7 °C 30.26 in /  1024.6 hPa ENE 3.0 mph /  4.8 km/h 7.0 mph /  11.3 km/h 82 % 0.00 in /  0 mm 172 W/m2
11:46 45.7 °F /  7.6 °C 40.5 °F /  4.7 °C 30.26 in /  1024.6 hPa East 3.0 mph /  4.8 km/h 6.0 mph /  9.7 km/h 82 % 0.00 in /  0 mm 165 W/m2
11:51 45.9 °F /  7.7 °C 40.7 °F /  4.8 °C 30.26 in /  1024.6 hPa SE 1.0 mph /  1.6 km/h 6.0 mph /  9.7 km/h 82 % 0.00 in /  0 mm 179 W/m2
11:56 46.0 °F /  7.8 °C 40.9 °F /  4.9 °C 30.26 in /  1024.6 hPa ESE 1.0 mph /  1.6 km/h 7.0 mph /  11.3 km/h 82 % 0.00 in /  0 mm 200 W/m2
12:01 46.0 °F /  7.8 °C 40.5 °F /  4.7 °C 30.26 in /  1024.6 hPa ESE 3.0 mph /  4.8 km/h 8.0 mph /  12.9 km/h 81 % 0.00 in /  0 mm 200 W/m2
12:06 46.0 °F /  7.8 °C 40.5 °F /  4.7 °C 30.26 in /  1024.6 hPa ESE 3.0 mph /  4.8 km/h 8.0 mph /  12.9 km/h 81 % 0.00 in /  0 mm 206 W/m2
12:11 46.2 °F /  7.9 °C 40.7 °F /  4.8 °C 30.25 in /  1024.3 hPa ESE 3.0 mph /  4.8 km/h 7.0 mph /  11.3 km/h 81 % 0.00 in /  0 mm 202 W/m2
12:16 46.2 °F /  7.9 °C 40.7 °F /  4.8 °C 30.25 in /  1024.3 hPa ESE 3.0 mph /  4.8 km/h 8.0 mph /  12.9 km/h 81 % 0.00 in /  0 mm 216 W/m2
12:21 46.4 °F /  8 °C 40.9 °F /  4.9 °C 30.25 in /  1024.3 hPa ESE 3.0 mph /  4.8 km/h 9.0 mph /  14.5 km/h 81 % 0.00 in /  0 mm 232 W/m2
12:26 46.8 °F /  8.2 °C 41.2 °F /  5.1 °C 30.25 in /  1024.3 hPa SE 3.0 mph /  4.8 km/h 9.0 mph /  14.5 km/h 81 % 0.00 in /  0 mm 206 W/m2
12:31 46.9 °F /  8.3 °C 41.4 °F /  5.2 °C 30.25 in /  1024.3 hPa SE 3.0 mph /  4.8 km/h 7.0 mph /  11.3 km/h 81 % 0.00 in /  0 mm 197 W/m2
12:37 46.9 °F /  8.3 °C 41.1 °F /  5.1 °C 30.24 in /  1023.9 hPa SE 2.0 mph /  3.2 km/h 7.0 mph /  11.3 km/h 80 % 0.00 in /  0 mm 202 W/m2
12:42 47.1 °F /  8.4 °C 41.6 °F /  5.3 °C 30.24 in /  1023.9 hPa ESE 3.0 mph /  4.8 km/h 7.0 mph /  11.3 km/h 81 % 0.00 in /  0 mm 199 W/m2
12:47 47.3 °F /  8.5 °C 41.8 °F /  5.4 °C 30.24 in /  1023.9 hPa East 4.0 mph /  6.4 km/h 8.0 mph /  12.9 km/h 81 % 0.00 in /  0 mm 204 W/m2
12:52 47.3 °F /  8.5 °C 41.4 °F /  5.2 °C 30.24 in /  1023.9 hPa ESE 3.0 mph /  4.8 km/h 8.0 mph /  12.9 km/h 80 % 0.00 in /  0 mm 206 W/m2
12:57 47.3 °F /  8.5 °C 41.4 °F /  5.2 °C 30.24 in /  1023.9 hPa ESE 3.0 mph /  4.8 km/h 8.0 mph /  12.9 km/h 80 % 0.00 in /  0 mm 218 W/m2
13:02 47.5 °F /  8.6 °C 41.6 °F /  5.3 °C 30.24 in /  1023.9 hPa SE 4.0 mph /  6.4 km/h 11.0 mph /  17.7 km/h 80 % 0.00 in /  0 mm 257 W/m2
13:07 47.1 °F /  8.4 °C 41.3 °F /  5.2 °C 30.24 in /  1023.9 hPa SSE 5.0 mph /  8 km/h 11.0 mph /  17.7 km/h 80 % 0.00 in /  0 mm 251 W/m2
13:12 46.9 °F /  8.3 °C 41.1 °F /  5.1 °C 30.24 in /  1023.9 hPa SSE 6.0 mph /  9.7 km/h 10.0 mph /  16.1 km/h 80 % 0.00 in /  0 mm 262 W/m2
13:17 47.1 °F /  8.4 °C 41.6 °F /  5.3 °C 30.24 in /  1023.9 hPa SSE 6.0 mph /  9.7 km/h 10.0 mph /  16.1 km/h 81 % 0.00 in /  0 mm 288 W/m2
13:22 47.1 °F /  8.4 °C 41.6 °F /  5.3 °C 30.24 in /  1023.9 hPa South 6.0 mph /  9.7 km/h 10.0 mph /  16.1 km/h 81 % 0.00 in /  0 mm 294 W/m2
13:27 47.1 °F /  8.4 °C 41.3 °F /  5.2 °C 30.24 in /  1023.9 hPa South 5.0 mph /  8 km/h 10.0 mph /  16.1 km/h 80 % 0.00 in /  0 mm 334 W/m2
13:32 47.5 °F /  8.6 °C 41.6 °F /  5.3 °C 30.24 in /  1023.9 hPa SSE 6.0 mph /  9.7 km/h 11.0 mph /  17.7 km/h 80 % 0.00 in /  0 mm 306 W/m2
13:37 47.5 °F /  8.6 °C 41.6 °F /  5.3 °C 30.24 in /  1023.9 hPa SSE 5.0 mph /  8 km/h 11.0 mph /  17.7 km/h 80 % 0.00 in /  0 mm 288 W/m2
13:42 47.7 °F /  8.7 °C 41.5 °F /  5.3 °C 30.23 in /  1023.6 hPa SSE 5.0 mph /  8 km/h 14.0 mph /  22.5 km/h 79 % 0.00 in /  0 mm 274 W/m2
13:47 47.7 °F /  8.7 °C 41.5 °F /  5.3 °C 30.23 in /  1023.6 hPa SSE 5.0 mph /  8 km/h 14.0 mph /  22.5 km/h 79 % 0.00 in /  0 mm 244 W/m2
13:52 47.8 °F /  8.8 °C 41.6 °F /  5.3 °C 30.23 in /  1023.6 hPa SE 4.0 mph /  6.4 km/h 8.0 mph /  12.9 km/h 79 % 0.00 in /  0 mm 279 W/m2
13:57 48.2 °F /  9 °C 42.0 °F /  5.6 °C 30.23 in /  1023.6 hPa SE 3.0 mph /  4.8 km/h 8.0 mph /  12.9 km/h 79 % 0.00 in /  0 mm 292 W/m2
14:02 48.4 °F /  9.1 °C 42.2 °F /  5.7 °C 30.22 in /  1023.2 hPa SE 3.0 mph /  4.8 km/h 7.0 mph /  11.3 km/h 79 % 0.00 in /  0 mm 327 W/m2
14:07 48.6 °F /  9.2 °C 42.3 °F /  5.7 °C 30.22 in /  1023.2 hPa SE 4.0 mph /  6.4 km/h 9.0 mph /  14.5 km/h 79 % 0.00 in /  0 mm 341 W/m2
14:12 48.7 °F /  9.3 °C 42.2 °F /  5.7 °C 30.22 in /  1023.2 hPa SE 4.0 mph /  6.4 km/h 9.0 mph /  14.5 km/h 78 % 0.00 in /  0 mm 374 W/m2
14:17 48.6 °F /  9.2 °C 42.0 °F /  5.6 °C 30.22 in /  1023.2 hPa SE 5.0 mph /  8 km/h 9.0 mph /  14.5 km/h 78 % 0.00 in /  0 mm 308 W/m2
14:22 48.4 °F /  9.1 °C 41.8 °F /  5.4 °C 30.22 in /  1023.2 hPa SE 5.0 mph /  8 km/h 8.0 mph /  12.9 km/h 78 % 0.00 in /  0 mm 302 W/m2
14:27 48.4 °F /  9.1 °C 42.5 °F /  5.8 °C 30.22 in /  1023.2 hPa SSE 4.0 mph /  6.4 km/h 8.0 mph /  12.9 km/h 80 % 0.00 in /  0 mm 313 W/m2
14:32 48.4 °F /  9.1 °C 42.2 °F /  5.7 °C 30.22 in /  1023.2 hPa SE 5.0 mph /  8 km/h 11.0 mph /  17.7 km/h 79 % 0.00 in /  0 mm 325 W/m2
14:37 48.4 °F /  9.1 °C 42.2 °F /  5.7 °C 30.21 in /  1022.9 hPa SE 5.0 mph /  8 km/h 11.0 mph /  17.7 km/h 79 % 0.00 in /  0 mm 339 W/m2
14:42 48.6 °F /  9.2 °C 42.3 °F /  5.7 °C 30.21 in /  1022.9 hPa SSE 2.0 mph /  3.2 km/h 6.0 mph /  9.7 km/h 79 % 0.00 in /  0 mm 348 W/m2
14:47 48.7 °F /  9.3 °C 42.5 °F /  5.8 °C 30.21 in /  1022.9 hPa SE 1.0 mph /  1.6 km/h 5.0 mph /  8 km/h 79 % 0.00 in /  0 mm 512 W/m2
14:52 49.1 °F /  9.5 °C 42.9 °F /  6.1 °C 30.20 in /  1022.6 hPa ENE 2.0 mph /  3.2 km/h 6.0 mph /  9.7 km/h 79 % 0.00 in /  0 mm 352 W/m2
14:57 49.3 °F /  9.6 °C 43.0 °F /  6.1 °C 30.20 in /  1022.6 hPa ENE 3.0 mph /  4.8 km/h 7.0 mph /  11.3 km/h 79 % 0.00 in /  0 mm 290 W/m2
15:02 49.5 °F /  9.7 °C 42.9 °F /  6.1 °C 30.20 in /  1022.6 hPa ENE 4.0 mph /  6.4 km/h 7.0 mph /  11.3 km/h 78 % 0.00 in /  0 mm 309 W/m2
15:07 49.6 °F /  9.8 °C 43.1 °F /  6.2 °C 30.20 in /  1022.6 hPa East 3.0 mph /  4.8 km/h 6.0 mph /  9.7 km/h 78 % 0.00 in /  0 mm 304 W/m2
15:12 49.6 °F /  9.8 °C 43.1 °F /  6.2 °C 30.20 in /  1022.6 hPa NE 2.0 mph /  3.2 km/h 6.0 mph /  9.7 km/h 78 % 0.00 in /  0 mm 404 W/m2
15:17 50.2 °F /  10.1 °C 43.6 °F /  6.4 °C 30.20 in /  1022.6 hPa ENE 3.0 mph /  4.8 km/h 6.0 mph /  9.7 km/h 78 % 0.00 in /  0 mm 322 W/m2
15:22 50.4 °F /  10.2 °C 43.1 °F /  6.2 °C 30.19 in /  1022.2 hPa East 3.0 mph /  4.8 km/h 6.0 mph /  9.7 km/h 76 % 0.00 in /  0 mm 243 W/m2
15:27 50.5 °F /  10.3 °C 43.6 °F /  6.4 °C 30.19 in /  1022.2 hPa East 4.0 mph /  6.4 km/h 8.0 mph /  12.9 km/h 77 % 0.00 in /  0 mm 603 W/m2
15:32 51.1 °F /  10.6 °C 43.8 °F /  6.6 °C 30.19 in /  1022.2 hPa East 3.0 mph /  4.8 km/h 8.0 mph /  12.9 km/h 76 % 0.00 in /  0 mm 547 W/m2
15:37 51.4 °F /  10.8 °C 44.1 °F /  6.7 °C 30.19 in /  1022.2 hPa ENE 2.0 mph /  3.2 km/h 8.0 mph /  12.9 km/h 76 % 0.00 in /  0 mm 592 W/m2
15:42 51.6 °F /  10.9 °C 44.0 °F /  6.7 °C 30.18 in /  1021.9 hPa ENE 3.0 mph /  4.8 km/h 8.0 mph /  12.9 km/h 75 % 0.00 in /  0 mm 591 W/m2
15:47 52.2 °F /  11.2 °C 44.1 °F /  6.7 °C 30.18 in /  1021.9 hPa East 3.0 mph /  4.8 km/h 7.0 mph /  11.3 km/h 74 % 0.00 in /  0 mm 540 W/m2
15:52 52.5 °F /  11.4 °C 44.1 °F /  6.7 °C 30.18 in /  1021.9 hPa East 3.0 mph /  4.8 km/h 7.0 mph /  11.3 km/h 73 % 0.00 in /  0 mm 533 W/m2
15:57 52.5 °F /  11.4 °C 44.1 °F /  6.7 °C 30.18 in /  1021.9 hPa ENE 4.0 mph /  6.4 km/h 8.0 mph /  12.9 km/h 73 % 0.00 in /  0 mm 267 W/m2
16:02 52.2 °F /  11.2 °C 43.8 °F /  6.6 °C 30.18 in /  1021.9 hPa ENE 4.0 mph /  6.4 km/h 8.0 mph /  12.9 km/h 73 % 0.00 in /  0 mm 508 W/m2
16:07 52.2 °F /  11.2 °C 44.1 °F /  6.7 °C 30.18 in /  1021.9 hPa ENE 3.0 mph /  4.8 km/h 8.0 mph /  12.9 km/h 74 % 0.00 in /  0 mm 459 W/m2
16:12 52.3 °F /  11.3 °C 44.3 °F /  6.8 °C 30.18 in /  1021.9 hPa ENE 2.0 mph /  3.2 km/h 8.0 mph /  12.9 km/h 74 % 0.00 in /  0 mm 483 W/m2
16:17 52.7 °F /  11.5 °C 44.3 °F /  6.8 °C 30.17 in /  1021.6 hPa ENE 2.0 mph /  3.2 km/h 6.0 mph /  9.7 km/h 73 % 0.00 in /  0 mm 434 W/m2
16:22 53.1 °F /  11.7 °C 44.3 °F /  6.8 °C 30.17 in /  1021.6 hPa East 3.0 mph /  4.8 km/h 8.0 mph /  12.9 km/h 72 % 0.00 in /  0 mm 388 W/m2
16:27 53.2 °F /  11.8 °C 44.1 °F /  6.7 °C 30.17 in /  1021.6 hPa ESE 4.0 mph /  6.4 km/h 9.0 mph /  14.5 km/h 71 % 0.00 in /  0 mm 429 W/m2
16:32 53.2 °F /  11.8 °C 44.4 °F /  6.9 °C 30.17 in /  1021.6 hPa East 3.0 mph /  4.8 km/h 9.0 mph /  14.5 km/h 72 % 0.00 in /  0 mm 411 W/m2
16:38 53.4 °F /  11.9 °C 44.2 °F /  6.8 °C 30.17 in /  1021.6 hPa East 3.0 mph /  4.8 km/h 10.0 mph /  16.1 km/h 71 % 0.00 in /  0 mm 411 W/m2
16:43 53.6 °F /  12 °C 44.4 °F /  6.9 °C 30.17 in /  1021.6 hPa East 3.0 mph /  4.8 km/h 10.0 mph /  16.1 km/h 71 % 0.00 in /  0 mm 359 W/m2
16:48 53.8 °F /  12.1 °C 44.6 °F /  7 °C 30.17 in /  1021.6 hPa East 3.0 mph /  4.8 km/h 9.0 mph /  14.5 km/h 71 % 0.00 in /  0 mm 207 W/m2
16:53 53.8 °F /  12.1 °C 45.0 °F /  7.2 °C 30.17 in /  1021.6 hPa ENE 3.0 mph /  4.8 km/h 11.0 mph /  17.7 km/h 72 % 0.00 in /  0 mm 385 W/m2
16:58 53.8 °F /  12.1 °C 44.6 °F /  7 °C 30.17 in /  1021.6 hPa ENE 3.0 mph /  4.8 km/h 11.0 mph /  17.7 km/h 71 % 0.00 in /  0 mm 188 W/m2
17:03 53.8 °F /  12.1 °C 44.6 °F /  7 °C 30.17 in /  1021.6 hPa ENE 4.0 mph /  6.4 km/h 10.0 mph /  16.1 km/h 71 % 0.00 in /  0 mm 376 W/m2
17:08 53.8 °F /  12.1 °C 44.6 °F /  7 °C 30.16 in /  1021.2 hPa ENE 5.0 mph /  8 km/h 10.0 mph /  16.1 km/h 71 % 0.00 in /  0 mm 392 W/m2
17:13 53.4 °F /  11.9 °C 44.2 °F /  6.8 °C 30.16 in /  1021.2 hPa ENE 5.0 mph /  8 km/h 10.0 mph /  16.1 km/h 71 % 0.00 in /  0 mm 279 W/m2
17:18 53.4 °F /  11.9 °C 44.2 °F /  6.8 °C 30.16 in /  1021.2 hPa East 4.0 mph /  6.4 km/h 9.0 mph /  14.5 km/h 71 % 0.00 in /  0 mm 334 W/m2
17:23 53.8 °F /  12.1 °C 44.6 °F /  7 °C 30.16 in /  1021.2 hPa ENE 3.0 mph /  4.8 km/h 8.0 mph /  12.9 km/h 71 % 0.00 in /  0 mm 295 W/m2
17:28 53.6 °F /  12 °C 44.4 °F /  6.9 °C 30.16 in /  1021.2 hPa East 3.0 mph /  4.8 km/h 7.0 mph /  11.3 km/h 71 % 0.00 in /  0 mm 232 W/m2
17:33 53.8 °F /  12.1 °C 44.6 °F /  7 °C 30.16 in /  1021.2 hPa East 3.0 mph /  4.8 km/h 8.0 mph /  12.9 km/h 71 % 0.00 in /  0 mm 308 W/m2
17:38 53.8 °F /  12.1 °C 44.2 °F /  6.8 °C 30.16 in /  1021.2 hPa ESE 4.0 mph /  6.4 km/h 11.0 mph /  17.7 km/h 70 % 0.00 in /  0 mm 234 W/m2
17:43 53.8 °F /  12.1 °C 44.2 °F /  6.8 °C 30.16 in /  1021.2 hPa SE 5.0 mph /  8 km/h 11.0 mph /  17.7 km/h 70 % 0.00 in /  0 mm 214 W/m2
17:48 53.8 °F /  12.1 °C 43.8 °F /  6.6 °C 30.16 in /  1021.2 hPa SE 5.0 mph /  8 km/h 9.0 mph /  14.5 km/h 69 % 0.00 in /  0 mm 211 W/m2
17:53 53.8 °F /  12.1 °C 44.2 °F /  6.8 °C 30.16 in /  1021.2 hPa SE 5.0 mph /  8 km/h 9.0 mph /  14.5 km/h 70 % 0.00 in /  0 mm 199 W/m2
17:58 53.6 °F /  12 °C 44.0 °F /  6.7 °C 30.15 in /  1020.9 hPa SE 4.0 mph /  6.4 km/h 8.0 mph /  12.9 km/h 70 % 0.00 in /  0 mm 202 W/m2
18:03 53.6 °F /  12 °C 44.0 °F /  6.7 °C 30.15 in /  1020.9 hPa SE 4.0 mph /  6.4 km/h 8.0 mph /  12.9 km/h 70 % 0.00 in /  0 mm 185 W/m2
18:08 53.4 °F /  11.9 °C 44.6 °F /  7 °C 30.15 in /  1020.9 hPa East 4.0 mph /  6.4 km/h 10.0 mph /  16.1 km/h 72 % 0.00 in /  0 mm 183 W/m2
18:13 53.1 °F /  11.7 °C 44.6 °F /  7 °C 30.15 in /  1020.9 hPa ENE 4.0 mph /  6.4 km/h 10.0 mph /  16.1 km/h 73 % 0.00 in /  0 mm 165 W/m2
18:18 52.5 °F /  11.4 °C 44.5 °F /  6.9 °C 30.15 in /  1020.9 hPa ENE 5.0 mph /  8 km/h 9.0 mph /  14.5 km/h 74 % 0.00 in /  0 mm 141 W/m2
18:23 52.2 °F /  11.2 °C 44.5 °F /  6.9 °C 30.15 in /  1020.9 hPa ENE 5.0 mph /  8 km/h 9.0 mph /  14.5 km/h 75 % 0.00 in /  0 mm 118 W/m2
18:28 51.8 °F /  11 °C 44.5 °F /  6.9 °C 30.15 in /  1020.9 hPa ENE 4.0 mph /  6.4 km/h 9.0 mph /  14.5 km/h 76 % 0.00 in /  0 mm 90 W/m2
18:33 51.4 °F /  10.8 °C 44.1 °F /  6.7 °C 30.15 in /  1020.9 hPa ENE 4.0 mph /  6.4 km/h 8.0 mph /  12.9 km/h 76 % 0.00 in /  0 mm 63 W/m2
18:38 50.9 °F /  10.5 °C 43.9 °F /  6.6 °C 30.14 in /  1020.5 hPa ENE 5.0 mph /  8 km/h 9.0 mph /  14.5 km/h 77 % 0.00 in /  0 mm 60 W/m2
18:43 50.4 °F /  10.2 °C 43.8 °F /  6.6 °C 30.14 in /  1020.5 hPa ENE 6.0 mph /  9.7 km/h 9.0 mph /  14.5 km/h 78 % 0.00 in /  0 mm 44 W/m2
18:48 50.0 °F /  10 °C 43.7 °F /  6.5 °C 30.14 in /  1020.5 hPa ENE 6.0 mph /  9.7 km/h 11.0 mph /  17.7 km/h 79 % 0.00 in /  0 mm 47 W/m2
18:53 49.6 °F /  9.8 °C 43.7 °F /  6.5 °C 30.14 in /  1020.5 hPa ENE 5.0 mph /  8 km/h 11.0 mph /  17.7 km/h 80 % 0.00 in /  0 mm 32 W/m2
18:58 49.3 °F /  9.6 °C 43.4 °F /  6.3 °C 30.15 in /  1020.9 hPa ENE 4.0 mph /  6.4 km/h 10.0 mph /  16.1 km/h 80 % 0.00 in /  0 mm 23 W/m2
19:03 48.9 °F /  9.4 °C 43.3 °F /  6.3 °C 30.15 in /  1020.9 hPa ENE 3.0 mph /  4.8 km/h 9.0 mph /  14.5 km/h 81 % 0.00 in /  0 mm 18 W/m2
19:08 48.6 °F /  9.2 °C 43.3 °F /  6.3 °C 30.15 in /  1020.9 hPa ENE 3.0 mph /  4.8 km/h 9.0 mph /  14.5 km/h 82 % 0.00 in /  0 mm 12 W/m2
19:13 48.4 °F /  9.1 °C 43.1 °F /  6.2 °C 30.15 in /  1020.9 hPa East 2.0 mph /  3.2 km/h 7.0 mph /  11.3 km/h 82 % 0.00 in /  0 mm 11 W/m2
19:18 48.0 °F /  8.9 °C 43.1 °F /  6.2 °C 30.16 in /  1021.2 hPa ENE 2.0 mph /  3.2 km/h 7.0 mph /  11.3 km/h 83 % 0.00 in /  0 mm 7 W/m2
19:23 47.8 °F /  8.8 °C 43.2 °F /  6.2 °C 30.15 in /  1020.9 hPa ENE 2.0 mph /  3.2 km/h 7.0 mph /  11.3 km/h 84 % 0.00 in /  0 mm 5 W/m2
19:28 47.7 °F /  8.7 °C 43.4 °F /  6.3 °C 30.15 in /  1020.9 hPa ENE 4.0 mph /  6.4 km/h 8.0 mph /  12.9 km/h 85 % 0.00 in /  0 mm 0 W/m2
19:33 47.5 °F /  8.6 °C 43.2 °F /  6.2 °C 30.15 in /  1020.9 hPa ENE 3.0 mph /  4.8 km/h 8.0 mph /  12.9 km/h 85 % 0.00 in /  0 mm 0 W/m2
19:38 47.1 °F /  8.4 °C 43.1 °F /  6.2 °C 30.15 in /  1020.9 hPa ENE 4.0 mph /  6.4 km/h 7.0 mph /  11.3 km/h 86 % 0.00 in /  0 mm 0 W/m2
19:43 46.9 °F /  8.3 °C 43.0 °F /  6.1 °C 30.15 in /  1020.9 hPa ENE 4.0 mph /  6.4 km/h 8.0 mph /  12.9 km/h 86 % 0.00 in /  0 mm 0 W/m2
19:48 46.9 °F /  8.3 °C 43.0 °F /  6.1 °C 30.16 in /  1021.2 hPa ENE 3.0 mph /  4.8 km/h 8.0 mph /  12.9 km/h 86 % 0.00 in /  0 mm 0 W/m2
19:53 46.6 °F /  8.1 °C 42.6 °F /  5.9 °C 30.16 in /  1021.2 hPa ENE 4.0 mph /  6.4 km/h 11.0 mph /  17.7 km/h 86 % 0.00 in /  0 mm 0 W/m2
19:58 46.4 °F /  8 °C 42.7 °F /  5.9 °C 30.16 in /  1021.2 hPa East 4.0 mph /  6.4 km/h 11.0 mph /  17.7 km/h 87 % 0.00 in /  0 mm 0 W/m2
20:03 46.2 °F /  7.9 °C 42.6 °F /  5.9 °C 30.16 in /  1021.2 hPa ENE 4.0 mph /  6.4 km/h 9.0 mph /  14.5 km/h 87 % 0.00 in /  0 mm 0 W/m2
20:08 46.0 °F /  7.8 °C 42.4 °F /  5.8 °C 30.16 in /  1021.2 hPa ENE 4.0 mph /  6.4 km/h 9.0 mph /  14.5 km/h 87 % 0.00 in /  0 mm 0 W/m2
20:13 46.0 °F /  7.8 °C 42.4 °F /  5.8 °C 30.17 in /  1021.6 hPa ENE 5.0 mph /  8 km/h 9.0 mph /  14.5 km/h 87 % 0.00 in /  0 mm 0 W/m2
20:18 45.9 °F /  7.7 °C 42.2 °F /  5.7 °C 30.17 in /  1021.6 hPa ENE 4.0 mph /  6.4 km/h 9.0 mph /  14.5 km/h 87 % 0.00 in /  0 mm 0 W/m2
20:23 45.7 °F /  7.6 °C 42.0 °F /  5.6 °C 30.17 in /  1021.6 hPa ENE 4.0 mph /  6.4 km/h 9.0 mph /  14.5 km/h 87 % 0.00 in /  0 mm 0 W/m2
20:28 45.7 °F /  7.6 °C 42.3 °F /  5.7 °C 30.17 in /  1021.6 hPa ENE 4.0 mph /  6.4 km/h 9.0 mph /  14.5 km/h 88 % 0.00 in /  0 mm 0 W/m2
20:30 45.7 °F /  7.6 °C 42.3 °F /  5.7 °C 30.17 in /  1021.6 hPa ENE 4.0 mph /  6.4 km/h 9.0 mph /  14.5 km/h 88 % 0.00 in /  0 mm 0 W/m2
20:33 45.7 °F /  7.6 °C 42.3 °F /  5.7 °C 30.17 in /  1021.6 hPa ENE 4.0 mph /  6.4 km/h 9.0 mph /  14.5 km/h 88 % 0.00 in /  0 mm 0 W/m2
20:34 45.5 °F /  7.5 °C 42.2 °F /  5.7 °C 30.17 in /  1021.6 hPa ENE 4.0 mph /  6.4 km/h 9.0 mph /  14.5 km/h 88 % 0.00 in /  0 mm 0 W/m2
20:36 45.5 °F /  7.5 °C 42.2 °F /  5.7 °C 30.17 in /  1021.6 hPa ENE 4.0 mph /  6.4 km/h 10.0 mph /  16.1 km/h 88 % 0.00 in /  0 mm 0 W/m2
20:37 45.5 °F /  7.5 °C 42.2 °F /  5.7 °C 30.17 in /  1021.6 hPa ENE 4.0 mph /  6.4 km/h 10.0 mph /  16.1 km/h 88 % 0.00 in /  0 mm 0 W/m2
20:38 45.5 °F /  7.5 °C 42.2 °F /  5.7 °C 30.16 in /  1021.2 hPa ENE 4.0 mph /  6.4 km/h 10.0 mph /  16.1 km/h 88 % 0.00 in /  0 mm 0 W/m2
20:43 45.3 °F /  7.4 °C 42.0 °F /  5.6 °C 30.17 in /  1021.6 hPa East 4.0 mph /  6.4 km/h 10.0 mph /  16.1 km/h 88 % 0.00 in /  0 mm 0 W/m2
20:48 45.3 °F /  7.4 °C 42.0 °F /  5.6 °C 30.17 in /  1021.6 hPa East 4.0 mph /  6.4 km/h 8.0 mph /  12.9 km/h 88 % 0.00 in /  0 mm 0 W/m2
20:52 45.3 °F /  7.4 °C 42.0 °F /  5.6 °C 30.17 in /  1021.6 hPa East 3.0 mph /  4.8 km/h 8.0 mph /  12.9 km/h 88 % 0.00 in /  0 mm 0 W/m2
20:53 45.3 °F /  7.4 °C 42.0 °F /  5.6 °C 30.17 in /  1021.6 hPa East 4.0 mph /  6.4 km/h 7.0 mph /  11.3 km/h 88 % 0.00 in /  0 mm 0 W/m2
20:54 45.3 °F /  7.4 °C 42.0 °F /  5.6 °C 30.17 in /  1021.6 hPa East 4.0 mph /  6.4 km/h 7.0 mph /  11.3 km/h 88 % 0.00 in /  0 mm 0 W/m2
20:55 45.3 °F /  7.4 °C 42.0 °F /  5.6 °C 30.17 in /  1021.6 hPa East 3.0 mph /  4.8 km/h 7.0 mph /  11.3 km/h 88 % 0.00 in /  0 mm 0 W/m2
20:56 45.3 °F /  7.4 °C 42.0 °F /  5.6 °C 30.17 in /  1021.6 hPa East 3.0 mph /  4.8 km/h 7.0 mph /  11.3 km/h 88 % 0.00 in /  0 mm 0 W/m2
21:01 45.3 °F /  7.4 °C 42.0 °F /  5.6 °C 30.17 in /  1021.6 hPa East 3.0 mph /  4.8 km/h 8.0 mph /  12.9 km/h 88 % 0.00 in /  0 mm 0 W/m2
21:06 45.5 °F /  7.5 °C 42.2 °F /  5.7 °C 30.17 in /  1021.6 hPa East 2.0 mph /  3.2 km/h 8.0 mph /  12.9 km/h 88 % 0.00 in /  0 mm 0 W/m2
21:11 45.5 °F /  7.5 °C 42.2 °F /  5.7 °C 30.17 in /  1021.6 hPa East 2.0 mph /  3.2 km/h 6.0 mph /  9.7 km/h 88 % 0.00 in /  0 mm 0 W/m2
21:16 45.5 °F /  7.5 °C 41.9 °F /  5.5 °C 30.18 in /  1021.9 hPa East 2.0 mph /  3.2 km/h 8.0 mph /  12.9 km/h 87 % 0.00 in /  0 mm 0 W/m2
21:21 45.5 °F /  7.5 °C 42.2 °F /  5.7 °C 30.18 in /  1021.9 hPa ESE 2.0 mph /  3.2 km/h 8.0 mph /  12.9 km/h 88 % 0.00 in /  0 mm 0 W/m2
21:26 45.5 °F /  7.5 °C 42.2 °F /  5.7 °C 30.18 in /  1021.9 hPa East 2.0 mph /  3.2 km/h 6.0 mph /  9.7 km/h 88 % 0.00 in /  0 mm 0 W/m2
21:31 45.7 °F /  7.6 °C 42.3 °F /  5.7 °C 30.18 in /  1021.9 hPa East 1.0 mph /  1.6 km/h 6.0 mph /  9.7 km/h 88 % 0.00 in /  0 mm 0 W/m2
21:36 45.7 °F /  7.6 °C 42.3 °F /  5.7 °C 30.18 in /  1021.9 hPa East 2.0 mph /  3.2 km/h 7.0 mph /  11.3 km/h 88 % 0.00 in /  0 mm 0 W/m2
21:41 45.7 °F /  7.6 °C 42.3 °F /  5.7 °C 30.18 in /  1021.9 hPa East 3.0 mph /  4.8 km/h 7.0 mph /  11.3 km/h 88 % 0.00 in /  0 mm 0 W/m2
21:46 45.7 °F /  7.6 °C 42.3 °F /  5.7 °C 30.18 in /  1021.9 hPa ESE 2.0 mph /  3.2 km/h 7.0 mph /  11.3 km/h 88 % 0.00 in /  0 mm 0 W/m2
21:49 45.7 °F /  7.6 °C 42.3 °F /  5.7 °C 30.17 in /  1021.6 hPa ESE 2.0 mph /  3.2 km/h 6.0 mph /  9.7 km/h 88 % 0.00 in /  0 mm 0 W/m2
21:59 45.7 °F /  7.6 °C 42.3 °F /  5.7 °C 30.17 in /  1021.6 hPa ESE 4.0 mph /  6.4 km/h 8.0 mph /  12.9 km/h 88 % 0.00 in /  0 mm 0 W/m2
22:04 45.7 °F /  7.6 °C 42.3 °F /  5.7 °C 30.18 in /  1021.9 hPa ESE 4.0 mph /  6.4 km/h 8.0 mph /  12.9 km/h 88 % 0.00 in /  0 mm 0 W/m2
22:10 45.9 °F /  7.7 °C 42.5 °F /  5.8 °C 30.18 in /  1021.9 hPa ESE 4.0 mph /  6.4 km/h 9.0 mph /  14.5 km/h 88 % 0.00 in /  0 mm 0 W/m2
22:15 45.9 °F /  7.7 °C 42.5 °F /  5.8 °C 30.18 in /  1021.9 hPa ESE 4.0 mph /  6.4 km/h 9.0 mph /  14.5 km/h 88 % 0.00 in /  0 mm 0 W/m2
22:20 45.7 °F /  7.6 °C 42.3 °F /  5.7 °C 30.18 in /  1021.9 hPa ESE 5.0 mph /  8 km/h 11.0 mph /  17.7 km/h 88 % 0.00 in /  0 mm 0 W/m2
22:25 45.7 °F /  7.6 °C 42.3 °F /  5.7 °C 30.17 in /  1021.6 hPa ESE 6.0 mph /  9.7 km/h 11.0 mph /  17.7 km/h 88 % 0.00 in /  0 mm 0 W/m2
22:30 45.7 °F /  7.6 °C 42.3 °F /  5.7 °C 30.17 in /  1021.6 hPa ESE 5.0 mph /  8 km/h 10.0 mph /  16.1 km/h 88 % 0.00 in /  0 mm 0 W/m2
22:35 45.7 °F /  7.6 °C 42.3 °F /  5.7 °C 30.17 in /  1021.6 hPa SE 5.0 mph /  8 km/h 10.0 mph /  16.1 km/h 88 % 0.00 in /  0 mm 0 W/m2
22:40 45.5 °F /  7.5 °C 42.2 °F /  5.7 °C 30.17 in /  1021.6 hPa ESE 4.0 mph /  6.4 km/h 9.0 mph /  14.5 km/h 88 % 0.00 in /  0 mm 0 W/m2
22:45 45.3 °F /  7.4 °C 42.0 °F /  5.6 °C 30.17 in /  1021.6 hPa ESE 5.0 mph /  8 km/h 10.0 mph /  16.1 km/h 88 % 0.00 in /  0 mm 0 W/m2
22:50 45.3 °F /  7.4 °C 42.0 °F /  5.6 °C 30.17 in /  1021.6 hPa ESE 6.0 mph /  9.7 km/h 10.0 mph /  16.1 km/h 88 % 0.00 in /  0 mm 0 W/m2
22:55 45.3 °F /  7.4 °C 42.0 °F /  5.6 °C 30.17 in /  1021.6 hPa ESE 4.0 mph /  6.4 km/h 8.0 mph /  12.9 km/h 88 % 0.00 in /  0 mm 0 W/m2
23:00 45.3 °F /  7.4 °C 42.0 °F /  5.6 °C 30.16 in /  1021.2 hPa ESE 4.0 mph /  6.4 km/h 8.0 mph /  12.9 km/h 88 % 0.00 in /  0 mm 0 W/m2
23:05 45.1 °F /  7.3 °C 41.5 °F /  5.3 °C 30.16 in /  1021.2 hPa ESE 6.0 mph /  9.7 km/h 10.0 mph /  16.1 km/h 87 % 0.00 in /  0 mm 0 W/m2
23:10 45.1 °F /  7.3 °C 41.5 °F /  5.3 °C 30.16 in /  1021.2 hPa ESE 6.0 mph /  9.7 km/h 10.0 mph /  16.1 km/h 87 % 0.00 in /  0 mm 0 W/m2
23:15 45.1 °F /  7.3 °C 41.5 °F /  5.3 °C 30.16 in /  1021.2 hPa ESE 6.0 mph /  9.7 km/h 9.0 mph /  14.5 km/h 87 % 0.00 in /  0 mm 0 W/m2
23:20 45.0 °F /  7.2 °C 41.3 °F /  5.2 °C 30.16 in /  1021.2 hPa ESE 5.0 mph /  8 km/h 10.0 mph /  16.1 km/h 87 % 0.00 in /  0 mm 0 W/m2
23:25 45.0 °F /  7.2 °C 41.6 °F /  5.3 °C 30.16 in /  1021.2 hPa ESE 5.0 mph /  8 km/h 10.0 mph /  16.1 km/h 88 % 0.00 in /  0 mm 0 W/m2
23:30 45.0 °F /  7.2 °C 41.6 °F /  5.3 °C 30.16 in /  1021.2 hPa ESE 5.0 mph /  8 km/h 8.0 mph /  12.9 km/h 88 % 0.00 in /  0 mm 0 W/m2
23:35 45.0 °F /  7.2 °C 41.6 °F /  5.3 °C 30.16 in /  1021.2 hPa ESE 3.0 mph /  4.8 km/h 7.0 mph /  11.3 km/h 88 % 0.00 in /  0 mm 0 W/m2
23:40 45.0 °F /  7.2 °C 41.6 °F /  5.3 °C 30.16 in /  1021.2 hPa East 3.0 mph /  4.8 km/h 7.0 mph /  11.3 km/h 88 % 0.00 in /  0 mm 0 W/m2
23:45 44.8 °F /  7.1 °C 41.4 °F /  5.2 °C 30.16 in /  1021.2 hPa ESE 3.0 mph /  4.8 km/h 7.0 mph /  11.3 km/h 88 % 0.00 in /  0 mm 0 W/m2
23:50 44.8 °F /  7.1 °C 41.4 °F /  5.2 °C 30.16 in /  1021.2 hPa East 2.0 mph /  3.2 km/h 7.0 mph /  11.3 km/h 88 % 0.00 in /  0 mm 0 W/m2
23:55 44.6 °F /  7 °C 41.3 °F /  5.2 °C 30.16 in /  1021.2 hPa East 3.0 mph /  4.8 km/h 7.0 mph /  11.3 km/h 88 % 0.00 in /  0 mm 0 W/m2
Delerius-Weather
Compliments of Weather Underground - 2.25 mb

Data updates at regular intervals.